Time;durP1;ratioP1;P1;durP2;ratioP2;P2;SDS_P1;SDS_P2;PMS_P1;PMS_P2;Temp;Humidity;BMP_temperature;BMP_pressure;BME280_temperature;BME280_humidity;BME280_pressure;Samples;Min_cycle;Max_cycle;Signal;HPM_P1;HPM_P2
2023/06/21 00:02:19;;;;;;;14.05;11.27;;;;;;;;;;10208341;29;20387;-88
2023/06/21 00:07:23;;;;;;;15.52;11.63;;;;;;;;;;10206562;29;20030;-88
2023/06/21 00:12:26;;;;;;;17.02;11.65;;;;;;;;;;10206667;29;20027;-87
2023/06/21 00:17:27;;;;;;;14.77;12.05;;;;;;;;;;10205856;29;20032;-88
2023/06/21 00:22:29;;;;;;;17.88;13.68;;;;;;;;;;10206163;29;20059;-88
2023/06/21 00:27:30;;;;;;;15.70;12.02;;;;;;;;;;10205277;29;20024;-89
2023/06/21 00:32:31;;;;;;;19.48;14.20;;;;;;;;;;10182272;29;20032;-88
2023/06/21 00:37:32;;;;;;;20.23;13.45;;;;;;;;;;10183498;29;20035;-88
2023/06/21 00:42:33;;;;;;;15.32;12.48;;;;;;;;;;10206532;29;20031;-88
2023/06/21 00:47:34;;;;;;;15.23;12.60;;;;;;;;;;10206432;29;20035;-88
2023/06/21 00:52:37;;;;;;;17.63;13.05;;;;;;;;;;10189114;29;20042;-88
2023/06/21 00:57:38;;;;;;;14.55;11.65;;;;;;;;;;10189418;29;20130;-88
2023/06/21 01:02:39;;;;;;;14.77;12.68;;;;;;;;;;10189017;29;20027;-88
2023/06/21 01:08:03;;;;;;;16.70;13.80;;;;;;;;;;10188374;29;20513;-89
2023/06/21 01:13:20;;;;;;;18.95;13.52;;;;;;;;;;10175943;29;20047;-88
2023/06/21 01:18:22;;;;;;;19.75;14.23;;;;;;;;;;10188463;29;20042;-88
2023/06/21 01:23:26;;;;;;;16.67;12.95;;;;;;;;;;10188290;29;20035;-88
2023/06/21 01:28:28;;;;;;;17.63;13.80;;;;;;;;;;10187892;29;20474;-87
2023/06/21 01:33:31;;;;;;;18.63;14.48;;;;;;;;;;10187567;29;20078;-87
2023/06/21 01:38:32;;;;;;;19.20;14.88;;;;;;;;;;10187503;29;20031;-88
2023/06/21 01:43:34;;;;;;;19.73;15.10;;;;;;;;;;10187011;29;20096;-87
2023/06/21 01:48:35;;;;;;;20.67;15.43;;;;;;;;;;10186795;29;20027;-88
2023/06/21 01:53:37;;;;;;;19.05;15.38;;;;;;;;;;10204034;29;20111;-88
2023/06/21 01:58:38;;;;;;;19.00;15.25;;;;;;;;;;10187148;29;20046;-87
2023/06/21 02:03:41;;;;;;;23.75;17.02;;;;;;;;;;10203591;29;20032;-88
2023/06/21 02:08:44;;;;;;;18.90;15.05;;;;;;;;;;10186807;29;20042;-88
2023/06/21 02:13:49;;;;;;;24.70;16.83;;;;;;;;;;10202851;29;20035;-88
2023/06/21 02:18:50;;;;;;;21.50;15.70;;;;;;;;;;10186057;29;20030;-86
2023/06/21 02:23:51;;;;;;;20.17;16.27;;;;;;;;;;10186185;29;20028;-87
2023/06/21 02:28:52;;;;;;;20.33;15.52;;;;;;;;;;10185564;29;20051;-87
2023/06/21 02:33:53;;;;;;;19.48;15.68;;;;;;;;;;10186056;29;20035;-87
2023/06/21 02:38:55;;;;;;;20.13;16.10;;;;;;;;;;10185828;29;20035;-87
2023/06/21 02:43:59;;;;;;;23.50;16.35;;;;;;;;;;10185618;29;20456;-87
2023/06/21 02:49:01;;;;;;;21.73;15.82;;;;;;;;;;10203059;29;20035;-88
2023/06/21 02:54:02;;;;;;;21.30;16.35;;;;;;;;;;10185289;29;20043;-86
2023/06/21 02:59:03;;;;;;;23.40;16.85;;;;;;;;;;10195244;29;20050;-87
2023/06/21 03:04:04;;;;;;;21.30;16.40;;;;;;;;;;10179882;29;20032;-86
2023/06/21 03:09:05;;;;;;;20.60;16.45;;;;;;;;;;10193315;29;20027;-86
2023/06/21 03:14:06;;;;;;;22.17;16.15;;;;;;;;;;10193032;29;20020;-87
2023/06/21 03:19:08;;;;;;;19.88;16.05;;;;;;;;;;10193298;29;20031;-87
2023/06/21 03:24:10;;;;;;;20.95;16.27;;;;;;;;;;10210387;29;20053;-87
2023/06/21 03:29:11;;;;;;;20.23;16.67;;;;;;;;;;10192892;29;20052;-87
2023/06/21 03:34:13;;;;;;;18.45;15.50;;;;;;;;;;10208942;29;20528;-87
2023/06/21 03:39:14;;;;;;;20.52;16.17;;;;;;;;;;10208556;29;20118;-86
2023/06/21 03:44:15;;;;;;;24.08;16.90;;;;;;;;;;10196569;29;20039;-88
2023/06/21 03:49:17;;;;;;;20.55;16.75;;;;;;;;;;10208407;29;20051;-87
2023/06/21 03:54:18;;;;;;;20.00;16.85;;;;;;;;;;10190737;29;20653;-86
2023/06/21 03:59:19;;;;;;;20.05;15.90;;;;;;;;;;10208965;29;20479;-87
2023/06/21 04:04:23;;;;;;;20.35;16.20;;;;;;;;;;10194641;29;20035;-86
2023/06/21 04:09:25;;;;;;;19.43;16.00;;;;;;;;;;10190503;29;20122;-87
2023/06/21 04:14:26;;;;;;;20.83;16.25;;;;;;;;;;10190166;29;20031;-87
2023/06/21 04:19:27;;;;;;;20.52;16.00;;;;;;;;;;10208466;29;20031;-87
2023/06/21 04:24:28;;;;;;;22.48;16.42;;;;;;;;;;10194411;29;20038;-87
2023/06/21 04:29:30;;;;;;;18.60;15.07;;;;;;;;;;10189780;29;20058;-86
2023/06/21 04:34:33;;;;;;;19.27;15.07;;;;;;;;;;10207219;29;20039;-86
2023/06/21 04:39:59;;;;;;;20.50;16.48;;;;;;;;;;10188401;29;20035;-87
2023/06/21 04:45:00;;;;;;;21.10;16.23;;;;;;;;;;10204910;29;20043;-87
2023/06/21 04:50:01;;;;;;;19.13;15.43;;;;;;;;;;10189128;29;20036;-86
2023/06/21 04:55:05;;;;;;;20.92;16.35;;;;;;;;;;10206228;29;20118;-87
2023/06/21 05:00:07;;;;;;;21.23;16.55;;;;;;;;;;10189306;29;20087;-87
2023/06/21 05:05:08;;;;;;;24.42;16.08;;;;;;;;;;10205620;29;20036;-86
2023/06/21 05:10:10;;;;;;;22.35;17.70;;;;;;;;;;10188594;29;20115;-87
2023/06/21 05:15:11;;;;;;;21.75;14.75;;;;;;;;;;10188082;29;20487;-87
2023/06/21 05:20:12;;;;;;;23.98;16.05;;;;;;;;;;10187650;29;20116;-87
2023/06/21 05:25:13;;;;;;;21.77;16.27;;;;;;;;;;10205075;29;20024;-87
2023/06/21 05:30:14;;;;;;;24.83;16.48;;;;;;;;;;10205273;29;20062;-87
2023/06/21 05:35:15;;;;;;;25.35;17.75;;;;;;;;;;10187440;29;20042;-87
2023/06/21 05:40:16;;;;;;;23.58;16.77;;;;;;;;;;10204297;29;20043;-87
2023/06/21 05:45:17;;;;;;;25.52;17.63;;;;;;;;;;10204359;29;20065;-87
2023/06/21 05:50:18;;;;;;;26.65;17.55;;;;;;;;;;10187036;29;20034;-87
2023/06/21 05:55:19;;;;;;;26.17;17.08;;;;;;;;;;10186709;29;20065;-86
2023/06/21 06:00:21;;;;;;;23.30;15.77;;;;;;;;;;10187396;29;20118;-86
2023/06/21 06:05:22;;;;;;;27.33;17.00;;;;;;;;;;10204105;29;20036;-86
2023/06/21 06:10:22;;;;;;;25.00;16.45;;;;;;;;;;10173783;29;20570;-87
2023/06/21 06:15:23;;;;;;;23.30;14.95;;;;;;;;;;10203128;29;20523;-87
2023/06/21 06:20:26;;;;;;;25.05;16.52;;;;;;;;;;10203803;29;20408;-86
2023/06/21 06:25:27;;;;;;;20.95;15.80;;;;;;;;;;10190711;29;20019;-88
2023/06/21 06:30:28;;;;;;;18.42;14.80;;;;;;;;;;10189536;29;20059;-87
2023/06/21 06:35:29;;;;;;;27.77;16.48;;;;;;;;;;10186207;29;20082;-87
2023/06/21 06:40:30;;;;;;;22.10;14.30;;;;;;;;;;10202620;29;20480;-87
2023/06/21 06:45:31;;;;;;;25.95;15.10;;;;;;;;;;10204555;29;20086;-88
2023/06/21 06:50:32;;;;;;;22.75;13.75;;;;;;;;;;10189759;29;20036;-86
2023/06/21 06:55:34;;;;;;;20.48;14.38;;;;;;;;;;10185728;29;20042;-86
2023/06/21 07:00:35;;;;;;;18.98;13.40;;;;;;;;;;10185783;29;20043;-87
2023/06/21 07:05:36;;;;;;;20.33;13.45;;;;;;;;;;10202649;29;20496;-87
2023/06/21 07:10:39;;;;;;;18.65;12.88;;;;;;;;;;10178213;29;20036;-86
2023/06/21 07:15:40;;;;;;;20.17;12.73;;;;;;;;;;10197576;29;20031;-87
2023/06/21 07:20:41;;;;;;;19.73;12.35;;;;;;;;;;10202380;29;20750;-87
2023/06/21 07:25:42;;;;;;;20.63;12.77;;;;;;;;;;10185471;29;20043;-86
2023/06/21 07:30:43;;;;;;;14.60;11.80;;;;;;;;;;10202137;29;20062;-86
2023/06/21 07:35:44;;;;;;;20.38;11.35;;;;;;;;;;10172414;29;20508;-87
2023/06/21 07:40:45;;;;;;;19.00;11.07;;;;;;;;;;10185161;29;20023;-87
2023/06/21 07:45:46;;;;;;;16.13;11.00;;;;;;;;;;10201396;29;20040;-86
2023/06/21 07:50:47;;;;;;;14.38;10.88;;;;;;;;;;10185105;29;20040;-91
2023/06/21 07:55:48;;;;;;;15.77;11.18;;;;;;;;;;10209030;29;20499;-88
2023/06/21 08:00:49;;;;;;;18.52;11.10;;;;;;;;;;10196070;29;20027;-87
2023/06/21 08:05:50;;;;;;;13.88;9.95;;;;;;;;;;10177177;29;20083;-87
2023/06/21 08:10:51;;;;;;;15.88;10.80;;;;;;;;;;10195055;29;20040;-86
2023/06/21 08:15:52;;;;;;;14.48;10.65;;;;;;;;;;10176312;29;20119;-86
2023/06/21 08:20:53;;;;;;;14.30;10.25;;;;;;;;;;10194378;29;20043;-86
2023/06/21 08:25:54;;;;;;;12.27;9.98;;;;;;;;;;10190160;29;20035;-86
2023/06/21 08:30:55;;;;;;;13.45;9.60;;;;;;;;;;10207286;29;20750;-86
2023/06/21 08:35:56;;;;;;;13.65;9.95;;;;;;;;;;10207166;29;20436;-87
2023/06/21 08:41:00;;;;;;;12.68;9.88;;;;;;;;;;10206802;29;20090;-86
2023/06/21 08:46:03;;;;;;;12.13;10.17;;;;;;;;;;10158050;29;20043;-87
2023/06/21 08:51:05;;;;;;;13.37;10.63;;;;;;;;;;10188618;29;20687;-86
2023/06/21 08:56:07;;;;;;;12.50;10.00;;;;;;;;;;10188573;29;20095;-87
2023/06/21 09:01:09;;;;;;;14.68;11.35;;;;;;;;;;10207079;29;20032;-86
2023/06/21 09:06:13;;;;;;;12.48;10.10;;;;;;;;;;10198121;29;20091;-87
2023/06/21 09:11:17;;;;;;;17.08;11.80;;;;;;;;;;10182381;29;20494;-86
2023/06/21 09:16:19;;;;;;;15.93;11.88;;;;;;;;;;10187780;29;20054;-86
2023/06/21 09:21:20;;;;;;;13.07;11.73;;;;;;;;;;10205704;29;20028;-88
2023/06/21 09:26:21;;;;;;;12.93;11.52;;;;;;;;;;10205091;29;20043;-85
2023/06/21 09:31:22;;;;;;;15.13;11.80;;;;;;;;;;10204887;29;20052;-87
2023/06/21 09:36:24;;;;;;;14.02;11.60;;;;;;;;;;10205279;29;20028;-86
2023/06/21 09:41:25;;;;;;;11.95;10.75;;;;;;;;;;10204454;29;20385;-87
2023/06/21 09:46:26;;;;;;;13.95;11.63;;;;;;;;;;10205173;29;20036;-86
2023/06/21 09:51:28;;;;;;;14.88;11.90;;;;;;;;;;10204822;29;20051;-86
2023/06/21 09:56:32;;;;;;;14.65;11.50;;;;;;;;;;10203761;29;20071;-88
2023/06/21 10:01:37;;;;;;;15.38;12.30;;;;;;;;;;10204131;29;20119;-87
2023/06/21 10:06:38;;;;;;;13.88;11.45;;;;;;;;;;10203490;29;20074;-86
2023/06/21 10:11:40;;;;;;;15.82;11.85;;;;;;;;;;10191042;29;20031;-86
2023/06/21 10:16:41;;;;;;;13.55;11.82;;;;;;;;;;10203938;29;20047;-90
2023/06/21 10:21:43;;;;;;;19.60;12.80;;;;;;;;;;10186331;29;20499;-86
2023/06/21 10:26:44;;;;;;;15.70;12.20;;;;;;;;;;10186409;29;20864;-88
2023/06/21 10:31:46;;;;;;;15.77;12.50;;;;;;;;;;10203153;29;20474;-86
2023/06/21 10:36:51;;;;;;;16.33;12.27;;;;;;;;;;10203658;29;20039;-88
2023/06/21 10:41:52;;;;;;;;;;;;;;;;;;10197743;29;20036;-86
2023/06/21 10:46:53;;;;;;;18.33;15.32;;;;;;;;;;10186377;29;19965;-87
2023/06/21 10:51:54;;;;;;;23.70;17.90;;;;;;;;;;10186474;29;20055;-87
2023/06/21 10:56:56;;;;;;;24.02;18.88;;;;;;;;;;10177855;29;20086;-87
2023/06/21 11:01:57;;;;;;;29.75;22.40;;;;;;;;;;10186516;29;20035;-88
2023/06/21 11:06:59;;;;;;;27.35;22.17;;;;;;;;;;10186408;29;20039;-89
2023/06/21 11:12:07;;;;;;;33.60;24.17;;;;;;;;;;10164043;29;20083;-89
2023/06/21 11:17:11;;;;;;;31.10;24.90;;;;;;;;;;10170345;29;20115;-88
2023/06/21 11:22:16;;;;;;;34.97;28.90;;;;;;;;;;10193808;29;20032;-90
2023/06/21 11:27:17;;;;;;;40.15;31.65;;;;;;;;;;10210483;29;20860;-89
2023/06/21 11:32:19;;;;;;;39.45;29.60;;;;;;;;;;10208643;29;20058;-88
2023/06/21 11:37:32;;;;;;;30.13;24.35;;;;;;;;;;10209714;29;20091;-89
2023/06/21 11:42:34;;;;;;;28.73;24.25;;;;;;;;;;10181919;29;20552;-89
2023/06/21 11:47:35;;;;;;;28.50;24.48;;;;;;;;;;10168849;29;20040;-89
2023/06/21 11:52:36;;;;;;;25.55;20.58;;;;;;;;;;10186248;29;20034;-89
2023/06/21 11:57:44;;;;;;;25.45;21.25;;;;;;;;;;10195344;29;20035;-89
2023/06/21 12:02:45;;;;;;;20.50;18.05;;;;;;;;;;10195324;29;20024;-89
2023/06/21 12:07:46;;;;;;;19.23;15.55;;;;;;;;;;10172908;29;20168;-88
2023/06/21 12:12:49;;;;;;;18.70;16.40;;;;;;;;;;10177196;29;20042;-89
2023/06/21 12:17:52;;;;;;;16.42;12.90;;;;;;;;;;10171206;29;20048;-88
2023/06/21 12:22:53;;;;;;;15.32;13.05;;;;;;;;;;10182977;29;20745;-87
2023/06/21 12:28:02;;;;;;;13.68;10.88;;;;;;;;;;10191775;29;20056;-89
2023/06/21 12:33:04;;;;;;;12.45;10.63;;;;;;;;;;10168100;29;20032;-87
2023/06/21 12:38:18;;;;;;;12.40;10.32;;;;;;;;;;10191768;29;20159;-88
2023/06/21 12:43:36;;;;;;;14.70;12.23;;;;;;;;;;10190885;29;20024;-89
2023/06/21 12:48:42;;;;;;;12.52;10.68;;;;;;;;;;10182511;29;20035;-88
2023/06/21 12:53:43;;;;;;;13.50;10.98;;;;;;;;;;10181681;29;20542;-88
2023/06/21 12:58:44;;;;;;;10.80;9.07;;;;;;;;;;10189552;29;20063;-88
2023/06/21 13:03:45;;;;;;;9.82;7.80;;;;;;;;;;10190374;29;20752;-87
2023/06/21 13:08:46;;;;;;;9.18;8.20;;;;;;;;;;10190088;29;20044;-87
2023/06/21 13:13:47;;;;;;;12.07;9.40;;;;;;;;;;10188872;29;20034;-87
2023/06/21 13:18:49;;;;;;;11.27;9.02;;;;;;;;;;10185299;29;20063;-86
2023/06/21 13:23:50;;;;;;;10.48;8.38;;;;;;;;;;10206853;29;20431;-87
2023/06/21 13:28:51;;;;;;;9.32;8.07;;;;;;;;;;10207560;29;20094;-86
2023/06/21 13:33:53;;;;;;;11.27;8.55;;;;;;;;;;10188482;29;20075;-88
2023/06/21 13:38:54;;;;;;;12.25;8.52;;;;;;;;;;10205525;29;20043;-86
2023/06/21 13:43:55;;;;;;;11.55;8.98;;;;;;;;;;10204712;29;20452;-89
2023/06/21 13:48:56;;;;;;;11.80;7.93;;;;;;;;;;10187757;29;20043;-87
2023/06/21 13:53:57;;;;;;;12.40;9.32;;;;;;;;;;10174352;29;20091;-88
2023/06/21 13:58:58;;;;;;;11.55;10.07;;;;;;;;;;10187423;29;20024;-89
2023/06/21 14:03:59;;;;;;;13.50;11.00;;;;;;;;;;10187197;29;20483;-89
2023/06/21 14:09:01;;;;;;;12.15;10.85;;;;;;;;;;10187707;29;20412;-89
2023/06/21 14:14:02;;;;;;;12.95;11.30;;;;;;;;;;10187038;29;20034;-88
2023/06/21 14:19:03;;;;;;;14.80;11.57;;;;;;;;;;10186375;29;20039;-88
2023/06/21 14:24:04;;;;;;;16.50;11.50;;;;;;;;;;10173856;29;20095;-87
2023/06/21 14:29:05;;;;;;;12.73;11.30;;;;;;;;;;10186802;29;20058;-88
2023/06/21 14:34:06;;;;;;;14.73;12.63;;;;;;;;;;10173911;29;20039;-88
2023/06/21 14:39:08;;;;;;;16.17;12.32;;;;;;;;;;10190792;29;20159;-90
2023/06/21 14:44:09;;;;;;;15.05;12.70;;;;;;;;;;10173989;29;20028;-87
2023/06/21 14:49:11;;;;;;;15.65;12.90;;;;;;;;;;10186023;29;20285;-87
2023/06/21 14:54:12;;;;;;;12.55;11.25;;;;;;;;;;10191189;29;20094;-88
2023/06/21 14:59:13;;;;;;;15.52;12.25;;;;;;;;;;10183329;29;20488;-89
2023/06/21 15:04:14;;;;;;;15.55;11.60;;;;;;;;;;10195548;29;20772;-88
2023/06/21 15:09:16;;;;;;;14.32;12.25;;;;;;;;;;10194135;29;20034;-89
2023/06/21 15:14:17;;;;;;;16.15;11.98;;;;;;;;;;10168133;29;20040;-88
2023/06/21 15:19:20;;;;;;;13.68;12.20;;;;;;;;;;10193993;29;20078;-88
2023/06/21 15:24:21;;;;;;;14.77;12.13;;;;;;;;;;10210645;29;20439;-89
2023/06/21 15:29:22;;;;;;;15.32;12.52;;;;;;;;;;10193438;29;20087;-88
2023/06/21 15:34:23;;;;;;;14.68;12.23;;;;;;;;;;10193401;29;20130;-88
2023/06/21 15:39:24;;;;;;;14.95;12.18;;;;;;;;;;10194613;29;20098;-89
2023/06/21 15:44:25;;;;;;;16.05;11.60;;;;;;;;;;10193222;29;20035;-88
2023/06/21 15:49:27;;;;;;;13.35;11.40;;;;;;;;;;10193605;29;20039;-88
2023/06/21 15:54:28;;;;;;;15.70;11.73;;;;;;;;;;10192468;29;20130;-90
2023/06/21 15:59:29;;;;;;;15.02;13.00;;;;;;;;;;10191919;29;20036;-89
2023/06/21 16:04:33;;;;;;;15.25;12.68;;;;;;;;;;10179466;29;20105;-92
2023/06/21 16:09:34;;;;;;;14.60;12.13;;;;;;;;;;10167902;29;20036;-89
2023/06/21 16:14:35;;;;;;;19.85;13.82;;;;;;;;;;10179334;29;20032;-87
2023/06/21 16:19:36;;;;;;;18.02;13.55;;;;;;;;;;10191129;29;20035;-88
2023/06/21 16:24:37;;;;;;;17.67;13.10;;;;;;;;;;10190812;29;20654;-87
2023/06/21 16:29:38;;;;;;;21.42;16.15;;;;;;;;;;10190023;29;20062;-88
2023/06/21 16:34:45;;;;;;;18.48;15.32;;;;;;;;;;10189847;29;20681;-88
2023/06/21 16:39:46;;;;;;;17.75;14.57;;;;;;;;;;10189865;29;20040;-88
2023/06/21 16:44:51;;;;;;;19.38;16.08;;;;;;;;;;10189884;29;20032;-88
2023/06/21 16:49:53;;;;;;;24.13;16.67;;;;;;;;;;10189473;29;20070;-87
2023/06/21 16:54:54;;;;;;;19.50;15.13;;;;;;;;;;10189299;29;20360;-87
2023/06/21 16:59:56;;;;;;;18.90;15.95;;;;;;;;;;10190102;29;20035;-87
2023/06/21 17:04:58;;;;;;;17.80;14.75;;;;;;;;;;10188652;29;20036;-88
2023/06/21 17:09:59;;;;;;;20.75;17.77;;;;;;;;;;10188883;29;20482;-88
2023/06/21 17:15:00;;;;;;;26.45;23.20;;;;;;;;;;10187845;29;20039;-87
2023/06/21 17:20:03;;;;;;;24.02;21.02;;;;;;;;;;10205197;29;20042;-88
2023/06/21 17:25:04;;;;;;;22.27;19.88;;;;;;;;;;10188429;29;20031;-86
2023/06/21 17:30:06;;;;;;;24.35;19.17;;;;;;;;;;10187748;29;20550;-88
2023/06/21 17:35:08;;;;;;;22.20;17.73;;;;;;;;;;10187379;29;20083;-87
2023/06/21 17:40:09;;;;;;;21.38;17.80;;;;;;;;;;10188373;29;20034;-88
2023/06/21 17:45:11;;;;;;;19.38;17.02;;;;;;;;;;10187726;29;20040;-87
2023/06/21 17:50:12;;;;;;;20.48;18.27;;;;;;;;;;10204298;29;20063;-87
2023/06/21 17:55:13;;;;;;;21.50;18.77;;;;;;;;;;10186827;29;20679;-87
2023/06/21 18:00:14;;;;;;;22.48;18.38;;;;;;;;;;10204303;29;20432;-88
2023/06/21 18:05:15;;;;;;;23.58;19.50;;;;;;;;;;10185832;29;20028;-87
2023/06/21 18:10:17;;;;;;;25.45;20.10;;;;;;;;;;10146746;29;20131;-86
2023/06/21 18:15:19;;;;;;;23.25;19.45;;;;;;;;;;10174822;29;20374;-88
2023/06/21 18:20:22;;;;;;;23.75;18.77;;;;;;;;;;10146258;29;20070;-87
2023/06/21 18:25:23;;;;;;;24.88;18.83;;;;;;;;;;10163042;29;20035;-86
2023/06/21 18:30:24;;;;;;;24.60;19.70;;;;;;;;;;10146213;29;20058;-86
2023/06/21 18:35:25;;;;;;;24.20;20.77;;;;;;;;;;10200365;29;20675;-87
2023/06/21 18:40:26;;;;;;;25.17;21.30;;;;;;;;;;10201493;29;20035;-86
2023/06/21 18:45:27;;;;;;;23.88;20.40;;;;;;;;;;10203258;29;20035;-87
2023/06/21 18:50:30;;;;;;;21.80;19.00;;;;;;;;;;10202027;29;20438;-86
2023/06/21 18:55:31;;;;;;;23.13;19.08;;;;;;;;;;10201858;29;20105;-87
2023/06/21 19:00:32;;;;;;;26.95;20.75;;;;;;;;;;10201047;29;20035;-87
2023/06/21 19:05:33;;;;;;;26.45;22.05;;;;;;;;;;10201786;29;20036;-86
2023/06/21 19:10:34;;;;;;;25.17;20.63;;;;;;;;;;10201013;29;20111;-87
2023/06/21 19:15:36;;;;;;;27.60;22.85;;;;;;;;;;10177737;29;20065;-88
2023/06/21 19:20:37;;;;;;;28.83;23.25;;;;;;;;;;10198655;29;20043;-87
2023/06/21 19:25:38;;;;;;;32.90;25.75;;;;;;;;;;10201061;29;20563;-86
2023/06/21 19:30:39;;;;;;;28.63;23.10;;;;;;;;;;10200582;29;20574;-87
2023/06/21 19:35:40;;;;;;;31.83;26.38;;;;;;;;;;10175837;29;20047;-87
2023/06/21 19:40:43;;;;;;;28.77;24.67;;;;;;;;;;10187730;29;20035;-88
2023/06/21 19:45:45;;;;;;;31.55;25.38;;;;;;;;;;10170522;29;20021;-87
2023/06/21 19:50:46;;;;;;;29.30;22.88;;;;;;;;;;10191461;29;20055;-87
2023/06/21 19:55:48;;;;;;;27.17;22.20;;;;;;;;;;10168400;29;20523;-87
2023/06/21 20:00:49;;;;;;;28.20;23.75;;;;;;;;;;10170760;29;20040;-86
2023/06/21 20:05:51;;;;;;;22.83;20.38;;;;;;;;;;10183829;29;20036;-88
2023/06/21 20:10:52;;;;;;;25.75;20.58;;;;;;;;;;10188793;29;20028;-87
2023/06/21 20:15:53;;;;;;;22.33;17.45;;;;;;;;;;10173922;29;20040;-87
2023/06/21 20:20:55;;;;;;;23.02;19.52;;;;;;;;;;10183379;29;20039;-87
2023/06/21 20:25:56;;;;;;;23.42;19.00;;;;;;;;;;10184762;29;20040;-88
2023/06/21 20:30:57;;;;;;;24.70;19.08;;;;;;;;;;10172722;29;20227;-87
2023/06/21 20:35:58;;;;;;;22.95;18.27;;;;;;;;;;10185164;29;20391;-87
2023/06/21 20:41:02;;;;;;;21.70;16.95;;;;;;;;;;10207953;29;20045;-88
2023/06/21 20:46:03;;;;;;;20.38;14.82;;;;;;;;;;10190390;29;20036;-87
2023/06/21 20:51:05;;;;;;;20.08;13.95;;;;;;;;;;10185446;29;20496;-87
2023/06/21 20:56:07;;;;;;;17.95;14.23;;;;;;;;;;10173282;29;20074;-87
2023/06/21 21:01:13;;;;;;;23.98;15.68;;;;;;;;;;10206605;29;20487;-87
2023/06/21 21:06:14;;;;;;;19.92;14.50;;;;;;;;;;10160618;29;20115;-86
2023/06/21 21:11:15;;;;;;;20.50;13.35;;;;;;;;;;10185294;29;20457;-88
2023/06/21 21:16:16;;;;;;;19.55;13.57;;;;;;;;;;10189137;29;20036;-87
2023/06/21 21:21:17;;;;;;;15.50;11.68;;;;;;;;;;10189396;29;20031;-90
2023/06/21 21:26:18;;;;;;;15.35;10.38;;;;;;;;;;10207574;29;20032;-88
2023/06/21 21:31:19;;;;;;;14.07;10.70;;;;;;;;;;10197553;29;20067;-89
2023/06/21 21:36:20;;;;;;;13.85;9.85;;;;;;;;;;10192829;29;20130;-88
2023/06/21 21:41:21;;;;;;;14.25;8.52;;;;;;;;;;10197424;29;20023;-88
2023/06/21 21:46:22;;;;;;;11.02;8.27;;;;;;;;;;10203932;29;20031;-89
2023/06/21 21:51:23;;;;;;;11.95;7.75;;;;;;;;;;10203603;29;20047;-89
2023/06/21 21:56:24;;;;;;;12.70;8.63;;;;;;;;;;10203110;29;20036;-90
2023/06/21 22:01:25;;;;;;;10.80;8.00;;;;;;;;;;10201881;29;20046;-87
2023/06/21 22:06:26;;;;;;;11.85;7.93;;;;;;;;;;10202977;29;20036;-87
2023/06/21 22:11:33;;;;;;;11.27;8.02;;;;;;;;;;10202419;29;20118;-86
2023/06/21 22:16:34;;;;;;;14.43;8.55;;;;;;;;;;10184761;29;20472;-86
2023/06/21 22:21:35;;;;;;;13.60;9.00;;;;;;;;;;10202344;29;20130;-86
2023/06/21 22:26:36;;;;;;;13.30;9.57;;;;;;;;;;10203256;29;20027;-87
2023/06/21 22:31:39;;;;;;;14.30;9.15;;;;;;;;;;10203156;29;20511;-86
2023/06/21 22:36:40;;;;;;;12.32;8.65;;;;;;;;;;10185892;29;20043;-86
2023/06/21 22:41:42;;;;;;;12.88;8.50;;;;;;;;;;10186312;29;20035;-86
2023/06/21 22:46:43;;;;;;;12.77;9.43;;;;;;;;;;10186032;29;20035;-86
2023/06/21 22:51:44;;;;;;;16.23;9.27;;;;;;;;;;10186276;29;20042;-86
2023/06/21 22:56:46;;;;;;;10.85;8.80;;;;;;;;;;10185396;29;20087;-86
2023/06/21 23:01:48;;;;;;;14.65;10.05;;;;;;;;;;10185660;29;20039;-86
2023/06/21 23:06:50;;;;;;;17.70;12.68;;;;;;;;;;10179351;29;20384;-86
2023/06/21 23:11:53;;;;;;;18.10;11.15;;;;;;;;;;10197249;29;20428;-86
2023/06/21 23:16:54;;;;;;;18.52;11.95;;;;;;;;;;10210437;29;20115;-86
2023/06/21 23:21:55;;;;;;;19.38;12.63;;;;;;;;;;10210781;29;20092;-87
2023/06/21 23:27:04;;;;;;;17.63;11.93;;;;;;;;;;10210874;29;20171;-87
2023/06/21 23:32:05;;;;;;;17.50;11.55;;;;;;;;;;10209945;29;20404;-86
2023/06/21 23:37:07;;;;;;;15.70;10.30;;;;;;;;;;10192778;29;20036;-87
2023/06/21 23:42:09;;;;;;;17.98;12.02;;;;;;;;;;10178000;29;20087;-86
2023/06/21 23:47:10;;;;;;;16.77;11.73;;;;;;;;;;10193767;29;20023;-85
2023/06/21 23:52:12;;;;;;;16.25;11.38;;;;;;;;;;10171163;29;20040;-86
2023/06/21 23:57:13;;;;;;;14.95;10.98;;;;;;;;;;10172255;29;20039;-86
